Time;durP1;ratioP1;P1;durP2;ratioP2;P2;SDS_P1;SDS_P2;PMS_P1;PMS_P2;Temp;Humidity;BMP_temperature;BMP_pressure;BME280_temperature;BME280_humidity;BME280_pressure;Samples;Min_cycle;Max_cycle;Signal;HPM_P1;HPM_P2
2021/05/06 00:00:05;;;;;;;2.90;2.00;;;;;;;2.18;80.72;95148.63;5079521;28;20193;-80
2021/05/06 00:02:26;;;;;;;3.03;2.50;;;;;;;2.23;79.99;95151.69;5092974;28;20207;-79
2021/05/06 00:08:00;;;;;;;3.60;1.97;;;;;;;2.22;80.57;95155.19;5092046;28;20207;-80
2021/05/06 00:32:11;;;;;;;4.07;1.93;;;;;;;2.42;79.75;95146.09;5092103;28;20215;-79
2021/05/06 00:34:36;;;;;;;4.80;2.07;;;;;;;2.38;79.88;95145.47;5091078;28;20262;-79
2021/05/06 00:37:02;;;;;;;3.40;2.33;;;;;;;2.42;79.12;95134.09;5074399;28;20215;-78
2021/05/06 00:39:37;;;;;;;3.60;2.57;;;;;;;2.43;78.99;95138.31;5091768;28;20237;-79
2021/05/06 00:42:11;;;;;;;4.13;2.10;;;;;;;2.43;78.83;95130.63;5091451;28;20165;-79
2021/05/06 00:55:41;;;;;;;6.33;2.30;;;;;;;2.43;79.68;95119.53;5071267;28;20184;-80
2021/05/06 01:01:07;;;;;;;2.40;2.20;;;;;;;2.57;78.40;95110.88;5071573;28;20212;-80
2021/05/06 01:03:45;;;;;;;4.77;2.20;;;;;;;2.52;79.00;95116.31;5056685;28;20878;-80
2021/05/06 01:06:15;;;;;;;4.77;2.10;;;;;;;2.57;78.08;95109.16;5055118;28;20197;-80
2021/05/06 01:08:47;;;;;;;5.27;2.00;;;;;;;2.53;78.79;95121.34;5071339;28;20186;-77
2021/05/06 01:11:28;;;;;;;4.33;2.00;;;;;;;2.57;78.44;95126.28;5071578;28;20193;-79
2021/05/06 01:13:53;;;;;;;5.47;2.37;;;;;;;2.59;78.52;95126.97;5074019;28;20180;-79
2021/05/06 01:16:19;;;;;;;3.90;2.23;;;;;;;2.61;78.22;95123.38;5073327;28;20569;-80
2021/05/06 01:18:44;;;;;;;2.90;2.40;;;;;;;2.63;78.36;95124.06;5075211;28;20204;-78
2021/05/06 01:21:09;;;;;;;6.20;2.27;;;;;;;2.66;78.62;95123.03;5076029;28;20184;-79
2021/05/06 01:23:37;;;;;;;2.57;2.00;;;;;;;2.72;77.94;95123.41;5075030;28;20170;-79
2021/05/06 01:26:15;;;;;;;4.20;2.13;;;;;;;2.66;78.55;95118.72;5074110;28;20173;-79
2021/05/06 01:28:44;;;;;;;3.77;2.17;;;;;;;2.64;78.69;95119.75;5058592;28;20208;-80
2021/05/06 01:31:14;;;;;;;3.23;2.20;;;;;;;2.62;78.74;95116.50;5074905;28;20217;-79
2021/05/06 01:33:45;;;;;;;4.77;2.27;;;;;;;2.69;79.04;95115.13;5075133;28;20574;-79
2021/05/06 01:46:53;;;;;;;4.23;1.97;;;;;;;2.71;79.42;95110.69;5073902;28;20185;-80
2021/05/06 02:00:05;;;;;;;4.83;2.10;;;;;;;2.59;79.74;95091.09;5074417;28;20221;-80
2021/05/06 02:02:30;;;;;;;4.03;2.00;;;;;;;2.61;79.78;95095.16;5058544;28;20179;-79
2021/05/06 02:04:56;;;;;;;5.47;2.37;;;;;;;2.60;80.17;95090.16;5073475;28;20225;-78
2021/05/06 02:07:21;;;;;;;5.43;2.27;;;;;;;2.52;80.05;95086.38;5073899;28;20201;-80
2021/05/06 02:09:48;;;;;;;3.63;2.00;;;;;;;2.57;80.12;95092.94;5075510;28;20179;-78
2021/05/06 02:12:15;;;;;;;5.73;2.30;;;;;;;2.49;80.11;95091.75;5057334;28;20866;-79
2021/05/06 02:14:46;;;;;;;6.00;2.40;;;;;;;2.59;80.52;95102.16;5056893;28;20330;-79
2021/05/06 02:17:11;;;;;;;4.77;2.30;;;;;;;2.46;80.79;95101.38;5056531;28;20224;-80
2021/05/06 02:19:39;;;;;;;4.83;2.20;;;;;;;2.49;81.17;95102.00;5057286;28;20193;-79
2021/05/06 02:22:07;;;;;;;4.67;2.50;;;;;;;2.46;81.33;95107.31;5057238;28;20216;-78
2021/05/06 02:24:33;;;;;;;4.20;2.30;;;;;;;2.44;81.29;95104.06;5056314;28;20175;-79
2021/05/06 02:26:58;;;;;;;4.80;2.50;;;;;;;2.47;81.83;95103.84;5073777;28;20193;-78
2021/05/06 02:29:23;;;;;;;4.63;2.63;;;;;;;2.46;82.42;95104.75;5073952;28;20196;-80
2021/05/06 02:31:49;;;;;;;3.27;2.20;;;;;;;2.46;81.65;95106.50;5056957;28;20242;-78
2021/05/06 02:34:14;;;;;;;4.80;2.30;;;;;;;2.42;81.71;95093.09;5073199;28;20190;-78
2021/05/06 02:36:39;;;;;;;8.90;2.50;;;;;;;2.45;81.64;95103.13;5056009;28;20201;-79
2021/05/06 02:39:05;;;;;;;3.73;2.77;;;;;;;2.40;82.64;95101.84;5056707;28;20191;-79
2021/05/06 02:41:30;;;;;;;6.43;2.93;;;;;;;2.40;82.42;95096.72;5073653;28;20210;-79
2021/05/06 02:43:56;;;;;;;4.90;2.80;;;;;;;2.39;82.78;95093.34;5073690;28;20169;-80
2021/05/06 02:46:21;;;;;;;3.20;2.67;;;;;;;2.38;82.74;95094.22;5056153;28;20568;-80
2021/05/06 02:48:46;;;;;;;3.83;2.70;;;;;;;2.41;82.65;95088.91;5056499;28;20223;-80
2021/05/06 02:51:12;;;;;;;4.73;2.70;;;;;;;2.42;82.95;95082.84;5073764;28;20186;-79
2021/05/06 02:53:44;;;;;;;6.37;2.60;;;;;;;2.41;82.71;95083.78;5056695;28;20181;-79
2021/05/06 02:56:19;;;;;;;3.40;2.80;;;;;;;2.41;82.30;95082.97;5072649;28;20241;-79
2021/05/06 03:04:02;;;;;;;6.20;2.93;;;;;;;2.34;82.26;95056.94;5073416;28;20260;-79
2021/05/06 03:06:30;;;;;;;7.87;2.97;;;;;;;2.33;81.73;95039.13;5072195;28;20197;-78
2021/05/06 03:08:59;;;;;;;3.47;2.90;;;;;;;2.45;80.67;95033.94;5073363;28;20174;-79
2021/05/06 03:14:51;;;;;;;4.63;2.80;;;;;;;2.37;81.07;95036.22;5039866;28;20184;-80
2021/05/06 03:21:07;;;;;;;5.50;2.63;;;;;;;2.26;80.87;95028.50;5037668;28;20236;-79
2021/05/06 03:22:59;;;;;;;4.50;2.43;;;;;;;2.21;81.31;95041.66;5039242;28;20214;-80
2021/05/06 03:25:26;;;;;;;4.57;2.33;;;;;;;2.23;81.49;95044.09;5050758;28;20186;-78
2021/05/06 03:43:23;;;;;;;5.67;2.73;;;;;;;1.99;83.12;95026.16;5051099;28;20189;-79
2021/05/06 04:29:48;;;;;;;6.50;2.90;;;;;;;1.73;83.93;94993.88;5054342;28;20177;-80
2021/05/06 04:37:27;;;;;;;5.13;3.20;;;;;;;1.90;83.43;94996.06;5070569;28;20291;-80
2021/05/06 04:40:00;;;;;;;6.10;3.37;;;;;;;1.99;83.31;94990.31;5053685;28;20178;-80
2021/05/06 04:45:37;;;;;;;7.80;3.50;;;;;;;2.22;82.02;94984.38;5055501;28;20223;-80
2021/05/06 04:53:45;;;;;;;3.43;2.80;;;;;;;2.68;80.51;94982.75;5060340;28;20254;-79
2021/05/06 04:56:33;;;;;;;3.00;2.70;;;;;;;2.58;80.54;94984.34;5073248;28;20194;-82
2021/05/06 05:03:12;;;;;;;5.47;3.13;;;;;;;2.54;80.69;94986.31;5061660;28;20177;-79
2021/05/06 05:04:46;;;;;;;4.87;2.90;;;;;;;3.14;78.88;94964.72;5079271;28;20683;-79
2021/05/06 05:07:16;;;;;;;3.17;2.53;;;;;;;3.04;78.74;94977.41;5089978;28;20195;-80
2021/05/06 05:12:27;;;;;;;5.63;2.77;;;;;;;3.12;79.34;94969.97;5083711;28;20222;-80
2021/05/06 05:25:27;;;;;;;3.17;2.63;;;;;;;2.77;80.81;94972.63;5081200;28;20180;-79
2021/05/06 05:27:59;;;;;;;3.67;2.53;;;;;;;2.85;80.89;94974.63;5083246;28;20193;-79
2021/05/06 05:30:27;;;;;;;4.03;2.63;;;;;;;2.78;81.13;94969.13;5082496;28;20204;-79
2021/05/06 05:32:52;;;;;;;4.73;3.20;;;;;;;2.81;81.48;94968.06;5066874;28;20215;-78
2021/05/06 05:35:35;;;;;;;5.03;3.17;;;;;;;2.90;82.00;94972.50;5081253;28;20294;-79
2021/05/06 05:38:09;;;;;;;8.17;3.30;;;;;;;2.93;81.72;94974.84;5071495;28;20302;-79
2021/05/06 05:43:35;;;;;;;6.80;2.73;;;;;;;3.18;81.50;94981.53;5075813;28;20564;-78
2021/05/06 05:46:39;;;;;;;5.40;3.10;;;;;;;3.19;81.70;94990.03;5080065;28;20182;-79
2021/05/06 05:56:52;;;;;;;5.67;2.70;;;;;;;3.34;81.28;94965.75;5080048;28;20204;-81
2021/05/06 05:59:17;;;;;;;4.97;2.63;;;;;;;3.48;81.30;94968.09;5076222;28;20660;-80
2021/05/06 06:01:43;;;;;;;4.37;3.00;;;;;;;3.40;81.65;94960.16;5070878;28;20187;-79
2021/05/06 06:04:08;;;;;;;5.23;2.53;;;;;;;3.42;81.75;94966.78;5082372;28;20667;-78
2021/05/06 06:06:33;;;;;;;3.97;2.33;;;;;;;3.55;81.43;94963.28;5086940;28;20206;-80
2021/05/06 06:08:59;;;;;;;5.00;2.70;;;;;;;3.48;81.91;94968.09;5090518;28;20186;-79
2021/05/06 06:11:25;;;;;;;6.27;3.03;;;;;;;3.47;81.77;94965.63;5078260;28;20302;-80
2021/05/06 06:13:52;;;;;;;4.73;2.93;;;;;;;3.42;81.83;94961.66;5062683;28;20187;-78
2021/05/06 06:16:25;;;;;;;6.83;2.60;;;;;;;3.46;81.88;94957.13;5082493;28;20695;-79
2021/05/06 06:18:59;;;;;;;6.67;3.10;;;;;;;3.45;82.05;94962.38;5064680;28;20177;-78
2021/05/06 06:21:31;;;;;;;3.93;2.60;;;;;;;3.43;81.39;94957.34;5077597;28;20176;-79
2021/05/06 06:23:57;;;;;;;6.73;3.03;;;;;;;3.41;81.66;94952.31;5073839;28;20268;-77
2021/05/06 06:26:22;;;;;;;6.80;2.63;;;;;;;3.44;82.09;94948.69;5072473;28;20235;-78
2021/05/06 06:28:51;;;;;;;11.10;2.50;;;;;;;3.32;81.81;94947.91;5078481;28;20200;-80
2021/05/06 06:33:44;;;;;;;5.10;2.83;;;;;;;3.37;81.23;94945.00;5086197;28;20184;-79
2021/05/06 06:36:10;;;;;;;4.60;2.20;;;;;;;3.35;81.16;94936.59;5090452;28;20206;-81
2021/05/06 06:38:35;;;;;;;7.73;2.57;;;;;;;3.39;80.83;94930.28;5058639;28;20185;-80
2021/05/06 06:41:02;;;;;;;4.50;3.03;;;;;;;3.34;81.19;94930.63;5089883;28;20189;-79
2021/05/06 06:43:28;;;;;;;6.93;2.43;;;;;;;3.40;80.88;94931.91;5090628;28;20192;-81
2021/05/06 06:45:54;;;;;;;6.53;2.70;;;;;;;3.42;81.14;94924.91;5074096;28;20181;-80
2021/05/06 06:48:19;;;;;;;5.07;2.73;;;;;;;3.47;80.48;94927.13;5078622;28;20181;-80
2021/05/06 06:50:44;;;;;;;5.10;2.50;;;;;;;3.45;80.45;94924.69;5092086;28;20623;-80
2021/05/06 06:53:12;;;;;;;4.10;3.43;;;;;;;3.46;80.88;94928.06;5080742;28;20233;-81
2021/05/06 06:55:38;;;;;;;6.23;2.63;;;;;;;3.45;80.06;94944.41;5078261;28;20263;-81
2021/05/06 06:58:14;;;;;;;5.07;2.93;;;;;;;3.37;80.66;94934.72;5070384;28;20228;-79
2021/05/06 07:00:40;;;;;;;5.87;2.53;;;;;;;3.45;79.94;94929.81;5084128;28;20180;-79
2021/05/06 07:03:06;;;;;;;5.07;2.70;;;;;;;3.56;80.38;94929.78;5071848;28;20227;-80
2021/05/06 07:05:31;;;;;;;4.17;2.77;;;;;;;3.73;80.64;94931.03;5089589;28;20571;-79
2021/05/06 07:08:15;;;;;;;8.00;2.83;;;;;;;3.84;80.41;94928.44;5078122;28;20229;-80
2021/05/06 07:10:42;;;;;;;5.70;2.80;;;;;;;3.80;80.36;94936.47;5093421;28;20203;-79
2021/05/06 07:13:07;;;;;;;4.77;2.87;;;;;;;3.79;80.27;94935.66;5080482;28;20188;-79
2021/05/06 07:15:33;;;;;;;4.80;2.80;;;;;;;3.78;80.24;94933.22;5088781;28;20260;-78
2021/05/06 07:17:58;;;;;;;7.17;3.20;;;;;;;3.73;80.53;94940.50;5059190;28;20207;-78
2021/05/06 07:20:24;;;;;;;4.70;2.70;;;;;;;3.78;80.25;94939.19;5086584;28;20651;-80
2021/05/06 07:22:50;;;;;;;5.80;3.13;;;;;;;3.76;80.37;94935.94;5081989;28;20183;-78
2021/05/06 07:25:15;;;;;;;4.67;3.20;;;;;;;3.80;80.93;94936.47;5077448;28;20673;-80
2021/05/06 07:27:40;;;;;;;7.03;2.90;;;;;;;3.83;81.57;94926.81;5092297;28;20596;-79
2021/05/06 07:30:07;;;;;;;5.27;3.10;;;;;;;3.89;81.35;94933.22;5072528;28;20217;-78
2021/05/06 07:32:32;;;;;;;4.87;2.63;;;;;;;3.79;80.08;94935.66;5088163;28;20234;-79
2021/05/06 07:34:58;;;;;;;5.63;3.03;;;;;;;3.89;80.78;94940.94;5075482;28;20196;-78
2021/05/06 07:37:23;;;;;;;7.97;4.00;;;;;;;3.83;81.12;94938.84;5091492;28;20207;-78
2021/05/06 07:39:48;;;;;;;10.13;4.73;;;;;;;3.83;81.63;94939.66;5088202;28;20286;-79
2021/05/06 07:42:14;;;;;;;12.67;5.40;;;;;;;3.94;80.52;94938.78;5072000;28;20187;-79
2021/05/06 07:44:39;;;;;;;9.03;3.70;;;;;;;4.04;80.16;94918.31;5082113;28;20187;-78
2021/05/06 07:47:10;;;;;;;8.27;3.17;;;;;;;4.08;80.77;94910.25;5081135;28;20209;-77
2021/05/06 07:49:38;;;;;;;8.00;3.23;;;;;;;4.30;80.46;94918.78;5081093;28;20701;-78
2021/05/06 07:52:04;;;;;;;4.53;3.50;;;;;;;4.50;80.23;94925.66;5072430;28;20197;-79
2021/05/06 07:54:30;;;;;;;4.50;2.97;;;;;;;4.70;79.72;94918.91;5058470;28;20656;-79
2021/05/06 07:56:56;;;;;;;5.57;2.97;;;;;;;4.78;79.49;94914.75;5073380;28;20201;-78
2021/05/06 07:59:21;;;;;;;7.53;3.57;;;;;;;5.05;78.85;94919.34;5077144;28;20189;-79
2021/05/06 08:01:46;;;;;;;5.80;3.10;;;;;;;5.22;78.36;94924.84;5071907;28;20173;-79
2021/05/06 08:04:13;;;;;;;6.87;2.93;;;;;;;5.20;77.49;94935.22;5064916;28;20185;-79
2021/05/06 08:06:38;;;;;;;6.77;2.50;;;;;;;5.42;77.18;94929.09;5087179;28;20203;-79
2021/05/06 08:09:04;;;;;;;8.47;2.73;;;;;;;5.26;76.90;94928.75;5064354;28;20276;-80
2021/05/06 08:11:29;;;;;;;11.23;3.50;;;;;;;5.46;77.09;94925.28;5055772;28;20947;-78
2021/05/06 08:13:54;;;;;;;6.63;3.00;;;;;;;5.43;76.83;94927.34;5064841;28;20587;-78
2021/05/06 08:16:20;;;;;;;9.97;4.00;;;;;;;5.21;77.08;94941.19;5090037;28;20573;-79
2021/05/06 08:18:45;;;;;;;19.60;8.20;;;;;;;5.14;76.88;94934.97;5083691;28;20527;-80
2021/05/06 08:21:10;;;;;;;18.77;8.83;;;;;;;5.10;77.13;94929.25;5076707;28;20229;-79
2021/05/06 08:23:36;;;;;;;11.53;4.93;;;;;;;4.93;77.40;94920.34;5087542;28;20185;-79
2021/05/06 08:26:01;;;;;;;40.93;16.00;;;;;;;4.94;77.85;94914.25;5088164;28;20192;-79
2021/05/06 08:28:26;;;;;;;9.47;4.63;;;;;;;4.87;77.83;94918.31;5079642;28;20264;-79
2021/05/06 08:30:52;;;;;;;11.80;5.37;;;;;;;4.96;77.82;94921.88;5086740;28;20243;-80
2021/05/06 08:33:18;;;;;;;7.97;3.13;;;;;;;5.05;77.68;94919.34;5061035;28;20264;-81
2021/05/06 08:35:43;;;;;;;7.27;3.27;;;;;;;5.19;78.06;94923.31;5085021;28;20196;-79
2021/05/06 08:38:08;;;;;;;7.43;3.27;;;;;;;5.19;77.63;94923.31;5064423;28;20223;-80
2021/05/06 08:40:35;;;;;;;9.23;4.40;;;;;;;5.29;77.90;94928.50;5082453;28;20214;-80
2021/05/06 08:43:00;;;;;;;5.57;3.07;;;;;;;5.32;77.33;94934.22;5061046;28;20177;-79
2021/05/06 08:45:31;;;;;;;8.97;3.47;;;;;;;5.29;77.19;94925.91;5080977;28;20191;-79
2021/05/06 08:47:57;;;;;;;9.20;3.80;;;;;;;5.28;77.76;94925.09;5080727;28;20201;-79
2021/05/06 08:50:22;;;;;;;10.20;3.37;;;;;;;5.40;77.63;94926.66;5068453;28;20195;-79
2021/05/06 08:52:49;;;;;;;7.40;2.93;;;;;;;5.47;77.28;94926.91;5072005;28;20185;-79
2021/05/06 08:55:14;;;;;;;6.33;2.60;;;;;;;5.39;76.39;94925.03;5078987;28;20213;-79
2021/05/06 08:57:40;;;;;;;4.77;2.50;;;;;;;5.58;76.02;94926.03;5081519;28;20228;-79
2021/05/06 09:00:07;;;;;;;4.93;2.90;;;;;;;5.64;75.77;94923.72;5066732;28;20213;-80
2021/05/06 09:02:32;;;;;;;9.00;2.90;;;;;;;5.65;75.55;94919.38;5099973;28;20192;-79
2021/05/06 09:05:09;;;;;;;5.23;3.07;;;;;;;5.73;75.60;94921.28;5059035;28;20189;-81
2021/05/06 09:07:44;;;;;;;6.33;3.13;;;;;;;5.81;75.74;94927.41;5084529;28;20726;-81
2021/05/06 09:10:11;;;;;;;5.47;2.80;;;;;;;5.84;75.36;94923.75;5080243;28;20768;-77
2021/05/06 09:12:38;;;;;;;7.10;2.77;;;;;;;5.77;75.33;94923.47;5085043;28;20193;-78
2021/05/06 09:15:13;;;;;;;7.43;2.60;;;;;;;5.76;75.04;94918.47;5064292;28;20177;-78
2021/05/06 09:17:39;;;;;;;5.63;2.83;;;;;;;5.73;74.84;94926.44;5087015;28;20206;-78
2021/05/06 09:20:16;;;;;;;6.77;3.07;;;;;;;5.71;74.34;94921.41;5069439;28;20236;-77
2021/05/06 09:22:43;;;;;;;15.43;6.77;;;;;;;5.59;74.36;94920.72;5079853;28;20180;-78
2021/05/06 09:25:26;;;;;;;19.63;10.57;;;;;;;5.70;74.59;94922.38;5076539;28;20184;-79
2021/05/06 09:28:10;;;;;;;15.90;7.20;;;;;;;6.01;74.26;94919.72;5078346;28;20211;-77
2021/05/06 09:30:37;;;;;;;4.53;3.00;;;;;;;6.20;74.46;94912.00;5076472;28;20676;-78
2021/05/06 09:33:05;;;;;;;9.97;3.50;;;;;;;6.25;73.18;94914.97;5085160;28;20667;-82
2021/05/06 09:35:40;;;;;;;15.37;4.00;;;;;;;6.27;72.86;94920.00;5079046;28;20184;-79
2021/05/06 09:38:05;;;;;;;9.73;4.63;;;;;;;6.22;72.80;94916.06;5090899;28;20196;-79
2021/05/06 09:40:46;;;;;;;7.43;3.37;;;;;;;6.46;72.80;94914.84;5085386;28;20593;-79
2021/05/06 09:43:22;;;;;;;5.93;2.57;;;;;;;6.27;73.04;94914.84;5084934;28;20176;-80
2021/05/06 09:45:47;;;;;;;5.80;2.93;;;;;;;6.36;73.54;94906.28;5101199;28;20246;-80
2021/05/06 09:48:19;;;;;;;6.87;2.97;;;;;;;6.40;72.96;94905.06;5076257;28;20256;-79
2021/05/06 09:50:46;;;;;;;5.23;2.10;;;;;;;6.29;71.79;94911.19;5092264;28;20212;-78
2021/05/06 09:53:21;;;;;;;6.47;3.07;;;;;;;6.33;72.29;94899.63;5085484;28;20740;-78
2021/05/06 09:55:47;;;;;;;4.27;2.30;;;;;;;6.39;72.86;94899.09;5089353;28;20291;-78
2021/05/06 09:58:18;;;;;;;3.17;2.23;;;;;;;6.36;72.49;94889.06;5075104;28;20212;-79
2021/05/06 10:00:45;;;;;;;4.73;2.63;;;;;;;6.51;71.95;94887.66;5075811;28;20176;-79
2021/05/06 10:03:15;;;;;;;5.47;2.20;;;;;;;6.50;71.29;94891.19;5082227;28;20183;-79
2021/05/06 10:05:42;;;;;;;6.40;2.80;;;;;;;6.62;70.87;94889.25;5078857;28;20196;-82
2021/05/06 10:08:08;;;;;;;12.93;7.37;;;;;;;6.60;70.38;94895.53;5085224;28;20214;-82
2021/05/06 10:10:35;;;;;;;7.70;3.30;;;;;;;6.66;71.26;94889.81;5074506;28;20200;-79
2021/05/06 10:13:01;;;;;;;17.70;8.33;;;;;;;6.71;71.16;94890.19;5074326;28;20177;-81
2021/05/06 10:15:28;;;;;;;14.93;8.70;;;;;;;6.67;71.13;94883.69;5062235;28;20715;-81
2021/05/06 10:17:53;;;;;;;12.67;6.40;;;;;;;6.55;70.41;94883.06;5083720;28;20193;-80
2021/05/06 10:20:22;;;;;;;6.43;2.17;;;;;;;6.30;70.52;94879.28;5069524;28;20287;-81
2021/05/06 10:22:48;;;;;;;5.93;2.80;;;;;;;6.31;70.50;94869.78;5073268;28;20189;-80
2021/05/06 10:25:13;;;;;;;9.37;4.50;;;;;;;6.40;70.98;94874.13;5062694;28;20230;-79
2021/05/06 10:27:40;;;;;;;4.47;2.40;;;;;;;6.35;71.34;94871.94;5070568;28;20204;-80
2021/05/06 10:30:07;;;;;;;4.07;2.20;;;;;;;6.29;71.34;94864.78;5067876;28;20181;-79
2021/05/06 10:32:33;;;;;;;5.97;2.40;;;;;;;6.31;71.31;94855.13;5091827;28;20254;-78
2021/05/06 10:35:03;;;;;;;4.67;3.10;;;;;;;6.42;71.41;94861.88;5084497;28;20172;-79
2021/05/06 10:37:31;;;;;;;3.87;2.10;;;;;;;6.62;70.80;94862.66;5060589;28;20568;-80
2021/05/06 10:39:57;;;;;;;7.00;2.13;;;;;;;6.74;70.48;94862.34;5067216;28;20180;-80
2021/05/06 10:42:26;;;;;;;2.77;1.80;;;;;;;6.54;70.17;94850.47;5068381;28;20181;-80
2021/05/06 10:44:59;;;;;;;4.97;2.00;;;;;;;6.56;69.81;94852.91;5084622;28;20268;-80
2021/05/06 10:47:43;;;;;;;7.30;2.00;;;;;;;6.65;69.50;94844.31;5086070;28;20279;-80
2021/05/06 10:50:19;;;;;;;3.67;1.87;;;;;;;6.87;69.86;94846.53;5083951;28;20621;-80
2021/05/06 10:52:50;;;;;;;2.27;1.60;;;;;;;6.63;70.16;94848.81;5076530;28;20656;-78
2021/05/06 10:55:39;;;;;;;2.27;1.70;;;;;;;6.77;69.94;94850.94;5063246;28;20762;-79
2021/05/06 10:58:26;;;;;;;2.60;2.07;;;;;;;6.76;71.10;94851.88;5071215;28;20262;-79
2021/05/06 11:01:01;;;;;;;3.63;1.80;;;;;;;6.82;71.33;94848.75;5077404;28;20177;-78
2021/05/06 11:03:26;;;;;;;2.87;1.63;;;;;;;6.72;71.63;94845.41;5086358;28;20176;-78
2021/05/06 11:05:51;;;;;;;2.97;1.60;;;;;;;6.70;70.61;94844.69;5089993;28;20582;-79
2021/05/06 11:08:17;;;;;;;3.77;1.80;;;;;;;6.51;71.36;94848.97;5063130;28;20195;-79
2021/05/06 11:10:46;;;;;;;3.87;2.00;;;;;;;6.31;72.22;94844.00;5086470;28;20207;-78
2021/05/06 11:13:11;;;;;;;3.53;2.10;;;;;;;6.49;72.84;94847.50;5081481;28;20311;-78
2021/05/06 11:15:37;;;;;;;2.43;1.50;;;;;;;6.10;72.85;94833.88;5073826;28;20216;-78
2021/05/06 11:18:04;;;;;;;4.20;1.37;;;;;;;5.99;74.12;94834.00;5073349;28;20228;-77
2021/05/06 11:20:29;;;;;;;1.50;1.40;;;;;;;5.94;74.55;94832.66;5076336;28;20173;-78
2021/05/06 11:22:58;;;;;;;1.70;1.30;;;;;;;6.09;74.71;94832.22;5080281;28;20188;-78
2021/05/06 11:25:27;;;;;;;2.07;1.60;;;;;;;5.99;75.79;94819.34;5094005;28;20173;-78
2021/05/06 11:27:56;;;;;;;3.63;1.90;;;;;;;6.00;76.44;94812.41;5084956;28;20227;-78
2021/05/06 11:30:43;;;;;;;3.10;1.90;;;;;;;6.16;76.13;94810.91;5080599;28;20181;-78
2021/05/06 11:33:17;;;;;;;4.77;3.10;;;;;;;6.01;76.68;94802.00;5086448;28;20889;-77
2021/05/06 11:35:56;;;;;;;5.10;2.30;;;;;;;6.15;76.94;94798.16;5089887;28;20184;-78
2021/05/06 11:38:23;;;;;;;2.63;1.77;;;;;;;6.09;77.02;94796.13;5067505;28;20263;-78
2021/05/06 11:40:48;;;;;;;6.37;2.40;;;;;;;6.05;77.23;94799.94;5089270;28;20659;-78
2021/05/06 11:43:20;;;;;;;3.83;2.70;;;;;;;6.09;77.31;94798.72;5082380;28;20203;-79
2021/05/06 11:45:46;;;;;;;4.27;2.30;;;;;;;5.89;77.88;94796.13;5067416;28;20263;-79
2021/05/06 11:48:13;;;;;;;5.30;2.40;;;;;;;5.95;77.89;94790.47;5066575;28;20749;-80
2021/05/06 11:50:42;;;;;;;10.60;7.13;;;;;;;6.04;78.44;94786.25;5074885;28;20193;-79
2021/05/06 11:53:14;;;;;;;6.43;5.83;;;;;;;5.88;78.63;94778.22;5087749;28;20656;-80
2021/05/06 11:55:42;;;;;;;4.03;3.40;;;;;;;5.90;79.10;94773.75;5072210;28;20192;-78
2021/05/06 11:58:09;;;;;;;3.40;2.90;;;;;;;5.99;78.28;94767.78;5055360;28;20447;-79
2021/05/06 12:00:36;;;;;;;4.90;3.43;;;;;;;6.13;77.98;94758.81;5085734;28;20200;-79
2021/05/06 12:03:11;;;;;;;2.97;2.07;;;;;;;6.06;78.40;94760.31;5088471;28;20173;-78
2021/05/06 12:05:55;;;;;;;3.20;3.00;;;;;;;6.28;78.05;94757.44;5062159;28;20272;-77
2021/05/06 12:08:23;;;;;;;2.60;2.40;;;;;;;6.28;77.76;94754.03;5084637;28;20181;-78
2021/05/06 12:10:48;;;;;;;2.47;2.20;;;;;;;6.23;78.38;94749.28;5090253;28;20571;-78
2021/05/06 12:13:15;;;;;;;2.43;1.97;;;;;;;6.17;78.26;94749.84;5067020;28;20222;-79
2021/05/06 12:15:41;;;;;;;1.93;1.83;;;;;;;6.12;78.18;94742.53;5091771;28;20547;-78
2021/05/06 12:18:20;;;;;;;2.83;1.50;;;;;;;6.20;78.68;94726.38;5085001;28;20213;-78
2021/05/06 12:20:53;;;;;;;1.20;1.10;;;;;;;6.29;78.09;94729.88;5078193;28;20373;-78
2021/05/06 12:23:18;;;;;;;2.00;1.73;;;;;;;6.29;78.31;94725.53;5057748;28;20208;-77
2021/05/06 12:25:44;;;;;;;2.00;1.60;;;;;;;6.27;78.00;94714.53;5089549;28;20184;-78
2021/05/06 12:28:09;;;;;;;2.93;1.80;;;;;;;6.24;78.23;94719.97;5059762;28;20224;-79
2021/05/06 12:30:34;;;;;;;2.07;1.60;;;;;;;6.41;77.87;94706.34;5074123;28;20228;-78
2021/05/06 12:33:00;;;;;;;2.50;2.30;;;;;;;6.31;78.59;94713.31;5089132;28;20212;-77
2021/05/06 12:35:25;;;;;;;2.23;1.50;;;;;;;6.33;78.71;94710.59;5084614;28;20185;-78
2021/05/06 12:37:53;;;;;;;2.63;2.20;;;;;;;6.39;78.33;94699.72;5072665;28;20219;-78
2021/05/06 12:40:18;;;;;;;2.10;1.87;;;;;;;6.41;78.93;94698.59;5058109;28;20294;-78
2021/05/06 12:42:44;;;;;;;2.47;2.27;;;;;;;6.11;78.13;94691.94;5070289;28;20193;-78
2021/05/06 12:45:12;;;;;;;2.77;2.53;;;;;;;6.27;79.05;94690.50;5075889;28;20188;-79
2021/05/06 12:47:43;;;;;;;2.33;2.13;;;;;;;6.40;78.53;94684.09;5088078;28;20206;-78
2021/05/06 12:50:26;;;;;;;1.53;1.30;;;;;;;6.38;78.83;94685.19;5070428;28;20199;-78
2021/05/06 12:52:55;;;;;;;1.40;1.30;;;;;;;6.52;78.01;94692.44;5087309;28;20582;-78
2021/05/06 12:55:29;;;;;;;2.93;1.13;;;;;;;6.40;78.16;94689.25;5077139;28;20250;-79
2021/05/06 12:58:12;;;;;;;1.53;1.43;;;;;;;6.31;77.68;94690.09;5084131;28;20576;-78
2021/05/06 13:00:37;;;;;;;2.00;1.47;;;;;;;6.42;78.67;94687.31;5089552;28;20185;-79
2021/05/06 13:03:05;;;;;;;1.70;1.60;;;;;;;6.52;78.55;94692.44;5066815;28;20185;-78
2021/05/06 13:05:39;;;;;;;1.60;1.50;;;;;;;6.37;78.11;94693.88;5093124;28;20173;-79
2021/05/06 13:08:05;;;;;;;1.80;1.50;;;;;;;6.38;78.87;94680.84;5070851;28;20197;-78
2021/05/06 13:10:35;;;;;;;2.60;1.30;;;;;;;6.40;78.55;94678.94;5076631;28;20539;-79
2021/05/06 13:13:02;;;;;;;1.67;1.10;;;;;;;6.25;79.79;94665.69;5079026;28;20713;-78
2021/05/06 13:15:27;;;;;;;1.60;1.33;;;;;;;6.12;79.62;94665.22;5093998;28;20704;-78
2021/05/06 13:17:53;;;;;;;4.43;1.30;;;;;;;6.24;79.17;94652.94;5069963;28;20224;-79
2021/05/06 13:20:27;;;;;;;1.30;1.20;;;;;;;6.32;79.46;94644.50;5087283;28;20177;-79
2021/05/06 13:23:04;;;;;;;2.67;1.60;;;;;;;6.47;79.60;94630.97;5075345;28;20185;-79
2021/05/06 13:25:46;;;;;;;2.00;1.20;;;;;;;6.35;78.81;94629.53;5091878;28;20546;-79
2021/05/06 13:28:13;;;;;;;2.40;1.10;;;;;;;6.28;79.32;94631.09;5086562;28;20732;-79
2021/05/06 13:30:39;;;;;;;0.80;0.80;;;;;;;6.19;78.95;94624.22;5080576;28;20209;-79
2021/05/06 13:33:20;;;;;;;2.03;1.70;;;;;;;5.99;79.15;94615.75;5087716;28;20184;-79
2021/05/06 13:36:11;;;;;;;1.33;1.00;;;;;;;5.96;78.83;94609.13;5075985;28;20196;-79
2021/05/06 13:39:03;;;;;;;2.03;1.03;;;;;;;6.01;78.56;94603.56;5061645;28;20275;-77
2021/05/06 13:41:49;;;;;;;1.73;1.17;;;;;;;5.97;78.44;94599.63;5068673;28;20188;-77
2021/05/06 13:44:20;;;;;;;4.20;2.53;;;;;;;5.84;78.65;94610.22;5083068;28;20280;-77
2021/05/06 13:46:54;;;;;;;5.57;3.83;;;;;;;5.67;78.58;94595.50;5084445;28;20199;-78
2021/05/06 13:49:26;;;;;;;5.57;3.10;;;;;;;5.58;78.16;94583.47;5094830;28;20217;-79
2021/05/06 13:51:54;;;;;;;16.27;7.00;;;;;;;5.63;78.61;94578.69;5080311;28;20689;-77
2021/05/06 13:54:20;;;;;;;8.73;5.53;;;;;;;5.61;79.03;94575.47;5072127;28;20522;-77
2021/05/06 13:56:45;;;;;;;9.60;5.27;;;;;;;5.40;78.61;94573.91;5072508;28;20574;-77
2021/05/06 13:59:11;;;;;;;2.60;1.40;;;;;;;5.42;79.04;94557.50;5074030;28;20282;-77
2021/05/06 14:01:37;;;;;;;8.87;5.90;;;;;;;5.66;79.64;94565.56;5055920;28;20271;-77
2021/05/06 14:04:03;;;;;;;6.50;3.37;;;;;;;5.70;80.00;94551.44;5071921;28;20181;-76
2021/05/06 14:06:29;;;;;;;32.50;12.17;;;;;;;5.80;80.16;94536.72;5073200;28;20208;-78
2021/05/06 14:08:54;;;;;;;19.23;8.17;;;;;;;5.48;80.12;94541.47;5079347;28;20177;-79
2021/05/06 14:11:20;;;;;;;7.57;3.73;;;;;;;5.67;79.97;94547.38;5073336;28;20697;-77
2021/05/06 14:13:45;;;;;;;2.83;2.23;;;;;;;5.78;79.05;94538.66;5055814;28;20543;-77
2021/05/06 14:16:11;;;;;;;7.53;3.40;;;;;;;5.69;79.94;94540.31;5071865;28;20193;-77
2021/05/06 14:18:36;;;;;;;1.73;1.60;;;;;;;5.59;80.21;94521.53;5055794;28;20191;-77
2021/05/06 14:21:03;;;;;;;2.33;1.33;;;;;;;5.61;79.72;94514.47;5055082;28;20181;-77
2021/05/06 14:23:32;;;;;;;1.40;1.20;;;;;;;5.56;79.88;94515.81;5072452;28;20238;-77
2021/05/06 14:25:57;;;;;;;1.63;1.30;;;;;;;5.75;79.85;94512.38;5071508;28;20196;-77
2021/05/06 14:28:23;;;;;;;1.37;1.23;;;;;;;5.69;80.24;94506.84;5087236;28;20177;-77
2021/05/06 14:30:48;;;;;;;2.33;1.40;;;;;;;5.89;80.26;94499.00;5082323;28;20243;-77
2021/05/06 14:33:13;;;;;;;1.33;1.23;;;;;;;5.89;80.09;94504.94;5064635;28;20558;-77
2021/05/06 14:35:39;;;;;;;1.67;1.20;;;;;;;6.05;80.30;94494.03;5081920;28;20177;-76
2021/05/06 14:38:08;;;;;;;1.27;1.17;;;;;;;6.12;80.39;94489.13;5082889;28;20230;-77
2021/05/06 14:40:33;;;;;;;2.13;1.00;;;;;;;6.30;79.26;94482.22;5091882;28;20254;-77
2021/05/06 14:42:58;;;;;;;2.03;1.10;;;;;;;6.47;79.08;94486.56;5093411;28;20188;-77